Fillmore, CA (93016)

10:09 AM PDT on May 03, 2015 (GMT -0700)
RAWS | | Change Station
CLOSE
Current Station
Personal Weather Station
Location: Fillmore, CA
Elevation: 1645 ft
Nearby Weather Stations

Elev 1645 ft 34.37 °N, 118.84 °W | Updated 1 hour ago

Partly Cloudy
Partly Cloudy
56 °F
Feels Like 56 °F
N
2
Wind Variable Wind from NW
Gusts 4.0 mph

Today
High -- | Low -- °F
--% Chance of Precip.
Yesterday
High -- | Low -- °F
Precip. -- in
6:03 AM 7:41 PM
Full, 100% visible
Pressure 29.96 in
Visibility 9.0 miles
Clouds Scattered Clouds 1700 ft
Dew Point 48 °F
Humidity 74%
Rainfall in
Snow Depth Not available.
UV 5 out of 12
Pollen 7.30 out of 12
Air Quality Not available.
Flu Activity Sporadic
METAR KCMA 031655Z 00000KT 9SM SCT017 17/11 A2994 RMK AO2 SLP146 T01670106

More Conditions Fewer Conditions

Pressure 29.96 in
Visibility 9.0 miles
Clouds Scattered Clouds 1700 ft
Dew Point 48 °F
Humidity 74%
Rainfall in
Snow Depth Not available.
UV 5 out of 12
Pollen 7.30 out of 12
Air Quality Not available.
Flu Activity Sporadic
METAR KCMA 031655Z 00000KT 9SM SCT017 17/11 A2994 RMK AO2 SLP146 T01670106

More Conditions Fewer Conditions

Nepal has a long way to go to dig out and rebuild from a devastating earthquake. We have teamed up with several charities and organizations to make contributing to the relief effort as easy as possible.
How you can help: Portlight Strategies | Red Cross

10-Day Weather Forecast

Almanac

Astronomy

May. 03, 2015 Rise Set
Actual Time
Civil Twilight
Nautical Twilight
Astronomical Twilight
Moon
Length of Visible Light
Length of Day
Tomorrow will be .
, % of the Moon is Illuminated

Today's Extremes

State Highs State Lows

Community

WunderPhotos

Upload Photos

1,818,284 photos uploaded!

WunderBlogs® & News

Nearby

Air Quality

  Air Quality AQ Index Pollutant
Not available.

Snow Depth

Station Depth Elevation

Earthquake Activity

City Distance Mag. Time & Date
Minimum magnitude displayed is 2.5.

Coastal Water Temperatures

Place Temperature

Stations

Nearby Weather Stations

Station Location Temp. Windchill Dew Point Humidity Wind Precip. Elev Updated Type